sensor_id;sensor_type;location;lat;lon;timestamp;pressure;altitude;pressure_sealevel;temperature
62845;BMP280;48929;47.910;20.390;2022-11-02T00:01:48;99877.59;;;11.74
62845;BMP280;48929;47.910;20.390;2022-11-02T00:04:16;99878.09;;;11.76
62845;BMP280;48929;47.910;20.390;2022-11-02T00:06:45;99886.09;;;11.75
62845;BMP280;48929;47.910;20.390;2022-11-02T00:09:13;99891.53;;;11.73
62845;BMP280;48929;47.910;20.390;2022-11-02T00:11:42;99901.09;;;11.73
62845;BMP280;48929;47.910;20.390;2022-11-02T00:14:10;99903.41;;;11.74
62845;BMP280;48929;47.910;20.390;2022-11-02T00:16:39;99902.66;;;11.74
62845;BMP280;48929;47.910;20.390;2022-11-02T00:19:09;99894.34;;;11.77
62845;BMP280;48929;47.910;20.390;2022-11-02T00:21:37;99905.72;;;11.76
62845;BMP280;48929;47.910;20.390;2022-11-02T00:24:07;99896.94;;;11.77
62845;BMP280;48929;47.910;20.390;2022-11-02T00:26:36;99898.75;;;11.76
62845;BMP280;48929;47.910;20.390;2022-11-02T00:29:04;99897.47;;;11.74
62845;BMP280;48929;47.910;20.390;2022-11-02T00:31:33;99899.28;;;11.73
62845;BMP280;48929;47.910;20.390;2022-11-02T00:34:02;99896.41;;;11.75
62845;BMP280;48929;47.910;20.390;2022-11-02T00:36:32;99890.78;;;11.73
62845;BMP280;48929;47.910;20.390;2022-11-02T00:39:01;99884.81;;;11.72
62845;BMP280;48929;47.910;20.390;2022-11-02T00:41:29;99884.31;;;11.70
62845;BMP280;48929;47.910;20.390;2022-11-02T00:43:58;99893.88;;;11.70
62845;BMP280;48929;47.910;20.390;2022-11-02T00:46:26;99901.16;;;11.63
62845;BMP280;48929;47.910;20.390;2022-11-02T00:48:55;99907.34;;;11.61
62845;BMP280;48929;47.910;20.390;2022-11-02T00:51:23;99891.09;;;11.61
62845;BMP280;48929;47.910;20.390;2022-11-02T00:53:54;99901.16;;;11.63
62845;BMP280;48929;47.910;20.390;2022-11-02T00:56:22;99894.69;;;11.60
62845;BMP280;48929;47.910;20.390;2022-11-02T00:58:51;99904.00;;;11.61
62845;BMP280;48929;47.910;20.390;2022-11-02T01:01:20;99911.50;;;11.57
62845;BMP280;48929;47.910;20.390;2022-11-02T01:03:49;99902.44;;;11.60
62845;BMP280;48929;47.910;20.390;2022-11-02T01:06:18;99905.81;;;11.60
62845;BMP280;48929;47.910;20.390;2022-11-02T01:08:46;99909.16;;;11.61
62845;BMP280;48929;47.910;20.390;2022-11-02T01:11:18;99904.00;;;11.61
62845;BMP280;48929;47.910;20.390;2022-11-02T01:13:49;99902.19;;;11.61
62845;BMP280;48929;47.910;20.390;2022-11-02T01:16:18;99907.63;;;11.60
62845;BMP280;48929;47.910;20.390;2022-11-02T01:18:50;99906.09;;;11.59
62845;BMP280;48929;47.910;20.390;2022-11-02T01:21:20;99912.28;;;11.58
62845;BMP280;48929;47.910;20.390;2022-11-02T01:23:49;99906.09;;;11.59
62845;BMP280;48929;47.910;20.390;2022-11-02T01:26:19;99901.97;;;11.58
62845;BMP280;48929;47.910;20.390;2022-11-02T01:28:47;99904.81;;;11.56
62845;BMP280;48929;47.910;20.390;2022-11-02T01:31:16;99899.91;;;11.55
62845;BMP280;48929;47.910;20.390;2022-11-02T01:33:45;99897.84;;;11.57
62845;BMP280;48929;47.910;20.390;2022-11-02T01:36:14;99905.56;;;11.57
62845;BMP280;48929;47.910;20.390;2022-11-02T01:38:43;99905.84;;;11.55
62845;BMP280;48929;47.910;20.390;2022-11-02T01:41:12;99909.19;;;11.56
62845;BMP280;48929;47.910;20.390;2022-11-02T01:43:43;99916.16;;;11.55
62845;BMP280;48929;47.910;20.390;2022-11-02T01:46:15;99922.34;;;11.54
62845;BMP280;48929;47.910;20.390;2022-11-02T01:48:49;99921.31;;;11.55
62845;BMP280;48929;47.910;20.390;2022-11-02T01:51:22;99919.78;;;11.54
62845;BMP280;48929;47.910;20.390;2022-11-02T01:53:54;99925.19;;;11.53
62845;BMP280;48929;47.910;20.390;2022-11-02T01:56:29;99925.19;;;11.53
62845;BMP280;48929;47.910;20.390;2022-11-02T01:59:03;99928.84;;;11.52
62845;BMP280;48929;47.910;20.390;2022-11-02T02:01:33;99924.97;;;11.49
62845;BMP280;48929;47.910;20.390;2022-11-02T02:04:06;99920.06;;;11.48
62845;BMP280;48929;47.910;20.390;2022-11-02T02:06:36;99910.00;;;11.46
62845;BMP280;48929;47.910;20.390;2022-11-02T02:09:06;99911.53;;;11.47
62845;BMP280;48929;47.910;20.390;2022-11-02T02:11:36;99914.13;;;11.47
62845;BMP280;48929;47.910;20.390;2022-11-02T02:14:09;99904.84;;;11.46
62845;BMP280;48929;47.910;20.390;2022-11-02T02:16:49;99894.28;;;11.43
62845;BMP280;48929;47.910;20.390;2022-11-02T02:19:37;99895.06;;;11.43
62845;BMP280;48929;47.910;20.390;2022-11-02T02:22:21;99890.66;;;11.44
62845;BMP280;48929;47.910;20.390;2022-11-02T02:25:03;99885.75;;;11.42
62845;BMP280;48929;47.910;20.390;2022-11-02T02:27:55;99895.31;;;11.42
62845;BMP280;48929;47.910;20.390;2022-11-02T02:30:36;99891.97;;;11.41
62845;BMP280;48929;47.910;20.390;2022-11-02T02:33:09;99889.41;;;11.41
62845;BMP280;48929;47.910;20.390;2022-11-02T02:35:44;99891.19;;;11.41
62845;BMP280;48929;47.910;20.390;2022-11-02T02:38:16;99886.31;;;11.39
62845;BMP280;48929;47.910;20.390;2022-11-02T02:40:49;99881.91;;;11.40
62845;BMP280;48929;47.910;20.390;2022-11-02T02:43:24;99878.56;;;11.39
62845;BMP280;48929;47.910;20.390;2022-11-02T02:46:01;99869.81;;;11.35
62845;BMP280;48929;47.910;20.390;2022-11-02T02:48:33;99867.50;;;11.29
62845;BMP280;48929;47.910;20.390;2022-11-02T02:51:06;99878.34;;;11.26
62845;BMP280;48929;47.910;20.390;2022-11-02T02:53:38;99873.44;;;11.24
62845;BMP280;48929;47.910;20.390;2022-11-02T02:56:09;99895.91;;;11.24
62845;BMP280;48929;47.910;20.390;2022-11-02T02:58:44;99905.72;;;11.22
62845;BMP280;48929;47.910;20.390;2022-11-02T03:01:13;99913.72;;;11.20
62845;BMP280;48929;47.910;20.390;2022-11-02T03:03:43;99910.88;;;11.22
62845;BMP280;48929;47.910;20.390;2022-11-02T03:06:15;99920.16;;;11.28
62845;BMP280;48929;47.910;20.390;2022-11-02T03:08:50;99917.56;;;11.28
62845;BMP280;48929;47.910;20.390;2022-11-02T03:11:21;99913.69;;;11.25
62845;BMP280;48929;47.910;20.390;2022-11-02T03:14:05;99914.72;;;11.24
62845;BMP280;48929;47.910;20.390;2022-11-02T03:16:44;99906.22;;;11.24
62845;BMP280;48929;47.910;20.390;2022-11-02T03:19:24;99911.13;;;11.25
62845;BMP280;48929;47.910;20.390;2022-11-02T03:21:59;99903.38;;;11.25
62845;BMP280;48929;47.910;20.390;2022-11-02T03:24:32;99903.13;;;11.27
62845;BMP280;48929;47.910;20.390;2022-11-02T03:27:11;99899.75;;;11.26
62845;BMP280;48929;47.910;20.390;2022-11-02T03:29:51;99902.59;;;11.25
62845;BMP280;48929;47.910;20.390;2022-11-02T03:32:25;99905.94;;;11.35
62845;BMP280;48929;47.910;20.390;2022-11-02T03:34:55;99912.94;;;11.30
62845;BMP280;48929;47.910;20.390;2022-11-02T03:37:28;99912.66;;;11.26
62845;BMP280;48929;47.910;20.390;2022-11-02T03:40:04;99902.84;;;11.23
62845;BMP280;48929;47.910;20.390;2022-11-02T03:42:34;99914.50;;;11.20
62845;BMP280;48929;47.910;20.390;2022-11-02T03:45:08;99921.69;;;11.24
62845;BMP280;48929;47.910;20.390;2022-11-02T03:47:38;99918.06;;;11.35
62845;BMP280;48929;47.910;20.390;2022-11-02T03:50:14;99914.94;;;11.38
62845;BMP280;48929;47.910;20.390;2022-11-02T03:52:52;99927.84;;;11.38
62845;BMP280;48929;47.910;20.390;2022-11-02T03:55:24;99928.91;;;11.32
62845;BMP280;48929;47.910;20.390;2022-11-02T03:57:54;99929.94;;;11.31
62845;BMP280;48929;47.910;20.390;2022-11-02T04:00:25;99923.75;;;11.32
62845;BMP280;48929;47.910;20.390;2022-11-02T04:02:56;99924.25;;;11.34
62845;BMP280;48929;47.910;20.390;2022-11-02T04:05:28;99915.50;;;11.35
62845;BMP280;48929;47.910;20.390;2022-11-02T04:07:57;99913.94;;;11.34
62845;BMP280;48929;47.910;20.390;2022-11-02T04:10:43;99907.25;;;11.28
62845;BMP280;48929;47.910;20.390;2022-11-02T04:13:25;99926.34;;;11.27
62845;BMP280;48929;47.910;20.390;2022-11-02T04:16:13;99918.59;;;11.27
62845;BMP280;48929;47.910;20.390;2022-11-02T04:18:42;99919.91;;;11.29
62845;BMP280;48929;47.910;20.390;2022-11-02T04:21:28;99911.38;;;11.29
62845;BMP280;48929;47.910;20.390;2022-11-02T04:23:57;99908.03;;;11.28
62845;BMP280;48929;47.910;20.390;2022-11-02T04:26:43;99909.84;;;11.28
62845;BMP280;48929;47.910;20.390;2022-11-02T04:29:12;99922.22;;;11.26
62845;BMP280;48929;47.910;20.390;2022-11-02T04:31:42;99926.84;;;11.24
62845;BMP280;48929;47.910;20.390;2022-11-02T04:34:11;99922.47;;;11.24
62845;BMP280;48929;47.910;20.390;2022-11-02T04:36:38;99934.59;;;11.24
62845;BMP280;48929;47.910;20.390;2022-11-02T04:39:07;99940.78;;;11.23
62845;BMP280;48929;47.910;20.390;2022-11-02T04:41:36;99936.41;;;11.23
62845;BMP280;48929;47.910;20.390;2022-11-02T04:44:12;99951.41;;;11.21
62845;BMP280;48929;47.910;20.390;2022-11-02T04:46:43;99942.88;;;11.20
62845;BMP280;48929;47.910;20.390;2022-11-02T04:49:12;99940.03;;;11.22
62845;BMP280;48929;47.910;20.390;2022-11-02T04:51:41;99943.66;;;11.21
62845;BMP280;48929;47.910;20.390;2022-11-02T04:54:13;99933.59;;;11.19
62845;BMP280;48929;47.910;20.390;2022-11-02T04:56:42;99941.59;;;11.18
62845;BMP280;48929;47.910;20.390;2022-11-02T04:59:10;99948.34;;;11.14
62845;BMP280;48929;47.910;20.390;2022-11-02T05:01:39;99961.75;;;11.11
62845;BMP280;48929;47.910;20.390;2022-11-02T05:04:09;99966.91;;;11.11
62845;BMP280;48929;47.910;20.390;2022-11-02T05:06:37;99970.00;;;11.08
62845;BMP280;48929;47.910;20.390;2022-11-02T05:09:07;99964.34;;;11.06
62845;BMP280;48929;47.910;20.390;2022-11-02T05:11:36;99970.53;;;11.05
62845;BMP280;48929;47.910;20.390;2022-11-02T05:14:07;99974.91;;;11.04
62845;BMP280;48929;47.910;20.390;2022-11-02T05:16:36;99981.09;;;11.03
62845;BMP280;48929;47.910;20.390;2022-11-02T05:19:05;99981.34;;;11.02
62845;BMP280;48929;47.910;20.390;2022-11-02T05:21:38;99978.00;;;11.01
62845;BMP280;48929;47.910;20.390;2022-11-02T05:24:07;99991.66;;;11.02
62845;BMP280;48929;47.910;20.390;2022-11-02T05:26:35;99990.88;;;11.01
62845;BMP280;48929;47.910;20.390;2022-11-02T05:29:04;99995.78;;;11.03
62845;BMP280;48929;47.910;20.390;2022-11-02T05:31:33;99998.13;;;11.04
62845;BMP280;48929;47.910;20.390;2022-11-02T05:34:05;99994.78;;;11.04
62845;BMP280;48929;47.910;20.390;2022-11-02T05:36:40;99995.28;;;11.06
62845;BMP280;48929;47.910;20.390;2022-11-02T05:39:08;99996.06;;;11.06
62845;BMP280;48929;47.910;20.390;2022-11-02T05:41:37;99992.44;;;11.07
62845;BMP280;48929;47.910;20.390;2022-11-02T05:44:05;99986.25;;;11.08
62845;BMP280;48929;47.910;20.390;2022-11-02T05:46:34;99995.53;;;11.09
62845;BMP280;48929;47.910;20.390;2022-11-02T05:49:03;99996.84;;;11.12
62845;BMP280;48929;47.910;20.390;2022-11-02T05:51:32;68311.44;;;-141.75
62845;BMP280;48929;47.910;20.390;2022-11-02T05:54:01;68311.44;;;-141.75
62845;BMP280;48929;47.910;20.390;2022-11-02T05:56:30;68311.44;;;-141.75
62845;BMP280;48929;47.910;20.390;2022-11-02T05:58:59;68311.44;;;-141.75
62845;BMP280;48929;47.910;20.390;2022-11-02T06:01:28;68311.44;;;-141.75
62845;BMP280;48929;47.910;20.390;2022-11-02T06:03:56;68311.44;;;-141.75
62845;BMP280;48929;47.910;20.390;2022-11-02T06:06:25;68311.44;;;-141.75
62845;BMP280;48929;47.910;20.390;2022-11-02T06:08:54;68311.44;;;-141.75
62845;BMP280;48929;47.910;20.390;2022-11-02T06:11:24;68311.44;;;-141.75
62845;BMP280;48929;47.910;20.390;2022-11-02T06:13:52;68311.44;;;-141.75
62845;BMP280;48929;47.910;20.390;2022-11-02T06:16:22;68311.44;;;-141.75
62845;BMP280;48929;47.910;20.390;2022-11-02T06:18:50;68311.44;;;-141.75
62845;BMP280;48929;47.910;20.390;2022-11-02T06:21:19;68311.44;;;-141.75
62845;BMP280;48929;47.910;20.390;2022-11-02T06:23:48;68311.44;;;-141.75
62845;BMP280;48929;47.910;20.390;2022-11-02T06:26:16;68311.44;;;-141.75
62845;BMP280;48929;47.910;20.390;2022-11-02T06:28:47;68311.44;;;-141.75
62845;BMP280;48929;47.910;20.390;2022-11-02T06:31:15;68311.44;;;-141.75
62845;BMP280;48929;47.910;20.390;2022-11-02T06:33:44;68311.44;;;-141.75
62845;BMP280;48929;47.910;20.390;2022-11-02T06:36:12;68311.44;;;-141.75
62845;BMP280;48929;47.910;20.390;2022-11-02T06:38:40;68311.44;;;-141.75
62845;BMP280;48929;47.910;20.390;2022-11-02T06:41:10;68311.44;;;-141.75
62845;BMP280;48929;47.910;20.390;2022-11-02T06:43:39;68311.44;;;-141.75
62845;BMP280;48929;47.910;20.390;2022-11-02T06:46:09;68311.44;;;-141.75
62845;BMP280;48929;47.910;20.390;2022-11-02T06:48:37;68311.44;;;-141.75
62845;BMP280;48929;47.910;20.390;2022-11-02T06:51:06;68311.44;;;-141.75
62845;BMP280;48929;47.910;20.390;2022-11-02T06:53:35;68311.44;;;-141.75
62845;BMP280;48929;47.910;20.390;2022-11-02T06:56:04;68311.44;;;-141.75
62845;BMP280;48929;47.910;20.390;2022-11-02T06:58:33;68311.44;;;-141.75
62845;BMP280;48929;47.910;20.390;2022-11-02T07:01:04;68311.44;;;-141.75
62845;BMP280;48929;47.910;20.390;2022-11-02T07:03:35;68311.44;;;-141.75
62845;BMP280;48929;47.910;20.390;2022-11-02T07:06:04;68311.44;;;-141.75
62845;BMP280;48929;47.910;20.390;2022-11-02T07:08:40;68311.44;;;-141.75
62845;BMP280;48929;47.910;20.390;2022-11-02T07:11:12;68311.44;;;-141.75
62845;BMP280;48929;47.910;20.390;2022-11-02T07:13:41;68311.44;;;-141.75
62845;BMP280;48929;47.910;20.390;2022-11-02T07:16:09;68311.44;;;-141.75
62845;BMP280;48929;47.910;20.390;2022-11-02T07:18:39;68311.44;;;-141.75
62845;BMP280;48929;47.910;20.390;2022-11-02T07:21:08;68311.44;;;-141.75
62845;BMP280;48929;47.910;20.390;2022-11-02T07:23:37;68311.44;;;-141.75
62845;BMP280;48929;47.910;20.390;2022-11-02T07:26:06;68311.44;;;-141.75
62845;BMP280;48929;47.910;20.390;2022-11-02T07:28:34;68311.44;;;-141.75
62845;BMP280;48929;47.910;20.390;2022-11-02T07:31:04;68311.44;;;-141.75
62845;BMP280;48929;47.910;20.390;2022-11-02T07:33:33;68311.44;;;-141.75
62845;BMP280;48929;47.910;20.390;2022-11-02T07:36:04;68311.44;;;-141.75
62845;BMP280;48929;47.910;20.390;2022-11-02T07:38:33;68311.44;;;-141.75
62845;BMP280;48929;47.910;20.390;2022-11-02T07:41:03;68311.44;;;-141.75
62845;BMP280;48929;47.910;20.390;2022-11-02T07:43:32;68311.44;;;-141.75
62845;BMP280;48929;47.910;20.390;2022-11-02T07:46:03;68311.44;;;-141.75
62845;BMP280;48929;47.910;20.390;2022-11-02T07:48:33;68311.44;;;-141.75
62845;BMP280;48929;47.910;20.390;2022-11-02T07:51:02;68311.44;;;-141.75
62845;BMP280;48929;47.910;20.390;2022-11-02T07:53:32;68311.44;;;-141.75
62845;BMP280;48929;47.910;20.390;2022-11-02T07:56:00;68311.44;;;-141.75
62845;BMP280;48929;47.910;20.390;2022-11-02T07:58:29;68311.44;;;-141.75
62845;BMP280;48929;47.910;20.390;2022-11-02T08:00:59;68311.44;;;-141.75
62845;BMP280;48929;47.910;20.390;2022-11-02T08:03:27;68311.44;;;-141.75
62845;BMP280;48929;47.910;20.390;2022-11-02T08:05:59;68311.44;;;-141.75
62845;BMP280;48929;47.910;20.390;2022-11-02T08:08:28;68311.44;;;-141.75
62845;BMP280;48929;47.910;20.390;2022-11-02T08:11:04;68311.44;;;-141.75
62845;BMP280;48929;47.910;20.390;2022-11-02T08:13:33;68311.44;;;-141.75
62845;BMP280;48929;47.910;20.390;2022-11-02T08:16:02;68311.44;;;-141.75
62845;BMP280;48929;47.910;20.390;2022-11-02T08:18:31;68311.44;;;-141.75
62845;BMP280;48929;47.910;20.390;2022-11-02T08:20:59;68311.44;;;-141.75
62845;BMP280;48929;47.910;20.390;2022-11-02T08:23:28;68311.44;;;-141.75
62845;BMP280;48929;47.910;20.390;2022-11-02T08:25:57;68311.44;;;-141.75
62845;BMP280;48929;47.910;20.390;2022-11-02T08:28:28;68311.44;;;-141.75
62845;BMP280;48929;47.910;20.390;2022-11-02T08:30:58;68311.44;;;-141.75
62845;BMP280;48929;47.910;20.390;2022-11-02T08:33:27;68311.44;;;-141.75
62845;BMP280;48929;47.910;20.390;2022-11-02T08:36:00;68311.44;;;-141.75
62845;BMP280;48929;47.910;20.390;2022-11-02T08:38:31;68311.44;;;-141.75
62845;BMP280;48929;47.910;20.390;2022-11-02T08:41:01;68311.44;;;-141.75
62845;BMP280;48929;47.910;20.390;2022-11-02T08:43:31;68311.44;;;-141.75
62845;BMP280;48929;47.910;20.390;2022-11-02T08:46:00;68311.44;;;-141.75
62845;BMP280;48929;47.910;20.390;2022-11-02T08:48:45;68311.44;;;-141.75
62845;BMP280;48929;47.910;20.390;2022-11-02T08:51:13;68311.44;;;-141.75
62845;BMP280;48929;47.910;20.390;2022-11-02T08:53:42;68311.44;;;-141.75
62845;BMP280;48929;47.910;20.390;2022-11-02T08:56:18;68311.44;;;-141.75
62845;BMP280;48929;47.910;20.390;2022-11-02T08:58:48;68311.44;;;-141.75
62845;BMP280;48929;47.910;20.390;2022-11-02T09:01:16;68311.44;;;-141.75
62845;BMP280;48929;47.910;20.390;2022-11-02T09:03:45;68311.44;;;-141.75
62845;BMP280;48929;47.910;20.390;2022-11-02T09:06:13;68311.44;;;-141.75
62845;BMP280;48929;47.910;20.390;2022-11-02T09:08:42;68311.44;;;-141.75
62845;BMP280;48929;47.910;20.390;2022-11-02T09:11:14;68311.44;;;-141.75
62845;BMP280;48929;47.910;20.390;2022-11-02T09:13:42;68311.44;;;-141.75
62845;BMP280;48929;47.910;20.390;2022-11-02T09:16:13;68311.44;;;-141.75
62845;BMP280;48929;47.910;20.390;2022-11-02T09:18:42;68311.44;;;-141.75
62845;BMP280;48929;47.910;20.390;2022-11-02T09:21:23;68311.44;;;-141.75
62845;BMP280;48929;47.910;20.390;2022-11-02T09:23:52;68311.44;;;-141.75
62845;BMP280;48929;47.910;20.390;2022-11-02T09:26:21;68311.44;;;-141.75
62845;BMP280;48929;47.910;20.390;2022-11-02T09:28:49;68311.44;;;-141.75
62845;BMP280;48929;47.910;20.390;2022-11-02T09:31:19;68311.44;;;-141.75
62845;BMP280;48929;47.910;20.390;2022-11-02T09:33:48;68311.44;;;-141.75
62845;BMP280;48929;47.910;20.390;2022-11-02T09:36:16;68311.44;;;-141.75
62845;BMP280;48929;47.910;20.390;2022-11-02T09:38:45;68311.44;;;-141.75
62845;BMP280;48929;47.910;20.390;2022-11-02T09:41:20;68311.44;;;-141.75
62845;BMP280;48929;47.910;20.390;2022-11-02T09:43:52;68311.44;;;-141.75
62845;BMP280;48929;47.910;20.390;2022-11-02T09:46:29;68311.44;;;-141.75
62845;BMP280;48929;47.910;20.390;2022-11-02T09:49:03;68311.44;;;-141.75
62845;BMP280;48929;47.910;20.390;2022-11-02T09:51:35;68311.44;;;-141.75
62845;BMP280;48929;47.910;20.390;2022-11-02T09:54:07;68311.44;;;-141.75
62845;BMP280;48929;47.910;20.390;2022-11-02T09:56:44;68311.44;;;-141.75
62845;BMP280;48929;47.910;20.390;2022-11-02T09:59:16;68311.44;;;-141.75
62845;BMP280;48929;47.910;20.390;2022-11-02T10:01:52;68311.44;;;-141.75
62845;BMP280;48929;47.910;20.390;2022-11-02T10:04:47;68311.44;;;-141.75
62845;BMP280;48929;47.910;20.390;2022-11-02T10:07:28;68311.44;;;-141.75
62845;BMP280;48929;47.910;20.390;2022-11-02T10:10:02;68311.44;;;-141.75
62845;BMP280;48929;47.910;20.390;2022-11-02T10:12:37;68311.44;;;-141.75
62845;BMP280;48929;47.910;20.390;2022-11-02T10:15:15;68311.44;;;-141.75
62845;BMP280;48929;47.910;20.390;2022-11-02T10:17:47;68311.44;;;-141.75
62845;BMP280;48929;47.910;20.390;2022-11-02T10:20:24;68311.44;;;-141.75
62845;BMP280;48929;47.910;20.390;2022-11-02T10:22:57;68311.44;;;-141.75
62845;BMP280;48929;47.910;20.390;2022-11-02T10:25:29;68311.44;;;-141.75
62845;BMP280;48929;47.910;20.390;2022-11-02T10:28:03;68311.44;;;-141.75
62845;BMP280;48929;47.910;20.390;2022-11-02T10:30:37;68311.44;;;-141.75
62845;BMP280;48929;47.910;20.390;2022-11-02T10:33:12;68311.44;;;-141.75
62845;BMP280;48929;47.910;20.390;2022-11-02T10:35:47;68311.44;;;-141.75
62845;BMP280;48929;47.910;20.390;2022-11-02T10:38:49;68311.44;;;-141.75
62845;BMP280;48929;47.910;20.390;2022-11-02T10:41:34;68311.44;;;-141.75
62845;BMP280;48929;47.910;20.390;2022-11-02T10:47:06;68311.44;;;-141.75
62845;BMP280;48929;47.910;20.390;2022-11-02T10:49:48;68311.44;;;-141.75
62845;BMP280;48929;47.910;20.390;2022-11-02T10:52:20;68311.44;;;-141.75
62845;BMP280;48929;47.910;20.390;2022-11-02T10:54:48;68311.44;;;-141.75
62845;BMP280;48929;47.910;20.390;2022-11-02T10:57:20;68311.44;;;-141.75
62845;BMP280;48929;47.910;20.390;2022-11-02T11:00:26;68311.44;;;-141.75
62845;BMP280;48929;47.910;20.390;2022-11-02T11:03:09;68311.44;;;-141.75
62845;BMP280;48929;47.910;20.390;2022-11-02T11:05:54;68311.44;;;-141.75
62845;BMP280;48929;47.910;20.390;2022-11-02T11:08:28;68311.44;;;-141.75
62845;BMP280;48929;47.910;20.390;2022-11-02T11:11:13;68311.44;;;-141.75
62845;BMP280;48929;47.910;20.390;2022-11-02T11:13:44;68311.44;;;-141.75
62845;BMP280;48929;47.910;20.390;2022-11-02T11:16:36;68311.44;;;-141.75
62845;BMP280;48929;47.910;20.390;2022-11-02T11:19:17;68311.44;;;-141.75
62845;BMP280;48929;47.910;20.390;2022-11-02T11:22:22;68311.44;;;-141.75
62845;BMP280;48929;47.910;20.390;2022-11-02T11:24:51;68311.44;;;-141.75
62845;BMP280;48929;47.910;20.390;2022-11-02T11:27:20;68311.44;;;-141.75
62845;BMP280;48929;47.910;20.390;2022-11-02T11:29:54;68311.44;;;-141.75
62845;BMP280;48929;47.910;20.390;2022-11-02T11:32:24;68311.44;;;-141.75
62845;BMP280;48929;47.910;20.390;2022-11-02T11:35:00;68311.44;;;-141.75
62845;BMP280;48929;47.910;20.390;2022-11-02T11:37:31;68311.44;;;-141.75
62845;BMP280;48929;47.910;20.390;2022-11-02T11:40:02;68311.44;;;-141.75
62845;BMP280;48929;47.910;20.390;2022-11-02T11:42:34;68311.44;;;-141.75
62845;BMP280;48929;47.910;20.390;2022-11-02T11:45:06;68311.44;;;-141.75
62845;BMP280;48929;47.910;20.390;2022-11-02T11:47:42;68311.44;;;-141.75
62845;BMP280;48929;47.910;20.390;2022-11-02T11:50:17;68311.44;;;-141.75
62845;BMP280;48929;47.910;20.390;2022-11-02T11:53:09;68311.44;;;-141.75
62845;BMP280;48929;47.910;20.390;2022-11-02T11:55:45;68311.44;;;-141.75
62845;BMP280;48929;47.910;20.390;2022-11-02T11:58:18;68311.44;;;-141.75
62845;BMP280;48929;47.910;20.390;2022-11-02T12:01:02;68311.44;;;-141.75
62845;BMP280;48929;47.910;20.390;2022-11-02T12:03:50;68311.44;;;-141.75
62845;BMP280;48929;47.910;20.390;2022-11-02T12:06:25;68311.44;;;-141.75
62845;BMP280;48929;47.910;20.390;2022-11-02T12:09:02;68311.44;;;-141.75
62845;BMP280;48929;47.910;20.390;2022-11-02T12:11:42;68311.44;;;-141.75
62845;BMP280;48929;47.910;20.390;2022-11-02T12:14:26;68311.44;;;-141.75
62845;BMP280;48929;47.910;20.390;2022-11-02T12:17:26;68311.44;;;-141.75
62845;BMP280;48929;47.910;20.390;2022-11-02T12:20:05;68311.44;;;-141.75
62845;BMP280;48929;47.910;20.390;2022-11-02T12:22:44;68311.44;;;-141.75
62845;BMP280;48929;47.910;20.390;2022-11-02T12:25:35;68311.44;;;-141.75
62845;BMP280;48929;47.910;20.390;2022-11-02T12:28:18;68311.44;;;-141.75
62845;BMP280;48929;47.910;20.390;2022-11-02T12:30:58;68311.44;;;-141.75
62845;BMP280;48929;47.910;20.390;2022-11-02T12:33:37;68311.44;;;-141.75
62845;BMP280;48929;47.910;20.390;2022-11-02T12:36:11;68311.44;;;-141.75
62845;BMP280;48929;47.910;20.390;2022-11-02T12:38:50;68311.44;;;-141.75
62845;BMP280;48929;47.910;20.390;2022-11-02T12:41:33;68311.44;;;-141.75
62845;BMP280;48929;47.910;20.390;2022-11-02T12:44:15;68311.44;;;-141.75
62845;BMP280;48929;47.910;20.390;2022-11-02T12:46:55;68311.44;;;-141.75
62845;BMP280;48929;47.910;20.390;2022-11-02T12:49:35;68311.44;;;-141.75
62845;BMP280;48929;47.910;20.390;2022-11-02T12:52:17;68311.44;;;-141.75
62845;BMP280;48929;47.910;20.390;2022-11-02T12:55:05;68311.44;;;-141.75
62845;BMP280;48929;47.910;20.390;2022-11-02T12:57:44;68311.44;;;-141.75
62845;BMP280;48929;47.910;20.390;2022-11-02T13:00:29;68311.44;;;-141.75
62845;BMP280;48929;47.910;20.390;2022-11-02T13:03:34;68311.44;;;-141.75
62845;BMP280;48929;47.910;20.390;2022-11-02T13:06:08;68311.44;;;-141.75
62845;BMP280;48929;47.910;20.390;2022-11-02T13:08:44;68311.44;;;-141.75
62845;BMP280;48929;47.910;20.390;2022-11-02T13:11:17;68311.44;;;-141.75
62845;BMP280;48929;47.910;20.390;2022-11-02T13:13:50;68311.44;;;-141.75
62845;BMP280;48929;47.910;20.390;2022-11-02T13:16:34;68311.44;;;-141.75
62845;BMP280;48929;47.910;20.390;2022-11-02T13:19:11;68311.44;;;-141.75
62845;BMP280;48929;47.910;20.390;2022-11-02T13:21:45;68311.44;;;-141.75
62845;BMP280;48929;47.910;20.390;2022-11-02T13:24:18;68311.44;;;-141.75
62845;BMP280;48929;47.910;20.390;2022-11-02T13:26:58;68311.44;;;-141.75
62845;BMP280;48929;47.910;20.390;2022-11-02T13:29:55;68311.44;;;-141.75
62845;BMP280;48929;47.910;20.390;2022-11-02T13:32:30;68311.44;;;-141.75
62845;BMP280;48929;47.910;20.390;2022-11-02T13:35:04;68311.44;;;-141.75
62845;BMP280;48929;47.910;20.390;2022-11-02T13:37:36;68311.44;;;-141.75
62845;BMP280;48929;47.910;20.390;2022-11-02T13:40:13;68311.44;;;-141.75
62845;BMP280;48929;47.910;20.390;2022-11-02T13:43:24;68311.44;;;-141.75
62845;BMP280;48929;47.910;20.390;2022-11-02T13:46:20;68311.44;;;-141.75
62845;BMP280;48929;47.910;20.390;2022-11-02T13:48:55;68311.44;;;-141.75
62845;BMP280;48929;47.910;20.390;2022-11-02T13:51:30;68311.44;;;-141.75
62845;BMP280;48929;47.910;20.390;2022-11-02T13:54:02;68311.44;;;-141.75
62845;BMP280;48929;47.910;20.390;2022-11-02T13:56:35;68311.44;;;-141.75
62845;BMP280;48929;47.910;20.390;2022-11-02T13:59:06;68311.44;;;-141.75
62845;BMP280;48929;47.910;20.390;2022-11-02T14:01:38;68311.44;;;-141.75
62845;BMP280;48929;47.910;20.390;2022-11-02T14:04:09;68311.44;;;-141.75
62845;BMP280;48929;47.910;20.390;2022-11-02T14:06:49;68311.44;;;-141.75
62845;BMP280;48929;47.910;20.390;2022-11-02T14:09:24;68311.44;;;-141.75
62845;BMP280;48929;47.910;20.390;2022-11-02T14:12:23;68311.44;;;-141.75
62845;BMP280;48929;47.910;20.390;2022-11-02T14:18:27;68311.44;;;-141.75
62845;BMP280;48929;47.910;20.390;2022-11-02T14:20:58;68311.44;;;-141.75
62845;BMP280;48929;47.910;20.390;2022-11-02T14:23:44;68311.44;;;-141.75